sensor_id;sensor_type;location;lat;lon;timestamp;temperature;humidity
4578;DHT22;2301;47.354;8.528;2022-09-29T00:00:56;14.60;85.90
4578;DHT22;2301;47.354;8.528;2022-09-29T00:03:23;14.60;86.20
4578;DHT22;2301;47.354;8.528;2022-09-29T00:05:52;14.60;86.20
4578;DHT22;2301;47.354;8.528;2022-09-29T00:08:20;14.60;85.90
4578;DHT22;2301;47.354;8.528;2022-09-29T00:10:47;14.60;86.00
4578;DHT22;2301;47.354;8.528;2022-09-29T00:13:15;14.60;86.10
4578;DHT22;2301;47.354;8.528;2022-09-29T00:15:44;14.60;86.00
4578;DHT22;2301;47.354;8.528;2022-09-29T00:18:11;14.60;85.90
4578;DHT22;2301;47.354;8.528;2022-09-29T00:20:38;14.60;85.90
4578;DHT22;2301;47.354;8.528;2022-09-29T00:23:04;14.60;86.20
4578;DHT22;2301;47.354;8.528;2022-09-29T00:25:32;14.60;86.40
4578;DHT22;2301;47.354;8.528;2022-09-29T00:27:59;14.60;86.20
4578;DHT22;2301;47.354;8.528;2022-09-29T00:30:26;14.60;86.40
4578;DHT22;2301;47.354;8.528;2022-09-29T00:32:54;14.60;85.50
4578;DHT22;2301;47.354;8.528;2022-09-29T00:35:21;14.60;85.70
4578;DHT22;2301;47.354;8.528;2022-09-29T00:37:48;14.60;86.30
4578;DHT22;2301;47.354;8.528;2022-09-29T00:40:15;14.60;86.20
4578;DHT22;2301;47.354;8.528;2022-09-29T00:42:42;14.70;86.20
4578;DHT22;2301;47.354;8.528;2022-09-29T00:45:19;14.70;86.00
4578;DHT22;2301;47.354;8.528;2022-09-29T00:47:52;14.70;86.30
4578;DHT22;2301;47.354;8.528;2022-09-29T00:50:28;14.70;85.50
4578;DHT22;2301;47.354;8.528;2022-09-29T00:52:59;14.70;85.40
4578;DHT22;2301;47.354;8.528;2022-09-29T00:55:33;14.70;85.40
4578;DHT22;2301;47.354;8.528;2022-09-29T00:58:06;14.70;85.30
4578;DHT22;2301;47.354;8.528;2022-09-29T01:00:34;14.70;85.40
4578;DHT22;2301;47.354;8.528;2022-09-29T01:03:06;14.60;85.50
4578;DHT22;2301;47.354;8.528;2022-09-29T01:05:39;14.70;85.20
4578;DHT22;2301;47.354;8.528;2022-09-29T01:08:12;14.60;85.20
4578;DHT22;2301;47.354;8.528;2022-09-29T01:10:42;14.70;85.00
4578;DHT22;2301;47.354;8.528;2022-09-29T01:13:09;14.70;84.80
4578;DHT22;2301;47.354;8.528;2022-09-29T01:15:37;14.70;85.00
4578;DHT22;2301;47.354;8.528;2022-09-29T01:18:04;14.70;85.10
4578;DHT22;2301;47.354;8.528;2022-09-29T01:20:32;14.70;84.80
4578;DHT22;2301;47.354;8.528;2022-09-29T01:23:24;14.70;84.70
4578;DHT22;2301;47.354;8.528;2022-09-29T01:26:36;14.70;84.50
4578;DHT22;2301;47.354;8.528;2022-09-29T01:32:42;14.60;84.30
4578;DHT22;2301;47.354;8.528;2022-09-29T01:35:18;14.60;84.40
4578;DHT22;2301;47.354;8.528;2022-09-29T01:38:01;14.60;84.70
4578;DHT22;2301;47.354;8.528;2022-09-29T01:40:33;14.60;84.70
4578;DHT22;2301;47.354;8.528;2022-09-29T01:43:06;14.60;84.70
4578;DHT22;2301;47.354;8.528;2022-09-29T01:45:36;14.70;84.60
4578;DHT22;2301;47.354;8.528;2022-09-29T01:48:08;14.60;84.50
4578;DHT22;2301;47.354;8.528;2022-09-29T01:50:38;14.60;84.60
4578;DHT22;2301;47.354;8.528;2022-09-29T01:53:09;14.60;84.80
4578;DHT22;2301;47.354;8.528;2022-09-29T01:55:47;14.60;84.90
4578;DHT22;2301;47.354;8.528;2022-09-29T01:58:17;14.60;85.00
4578;DHT22;2301;47.354;8.528;2022-09-29T02:00:48;14.60;85.00
4578;DHT22;2301;47.354;8.528;2022-09-29T02:03:21;14.60;85.10
4578;DHT22;2301;47.354;8.528;2022-09-29T02:05:52;14.70;85.40
4578;DHT22;2301;47.354;8.528;2022-09-29T02:08:26;14.70;85.40
4578;DHT22;2301;47.354;8.528;2022-09-29T02:11:00;14.70;86.10
4578;DHT22;2301;47.354;8.528;2022-09-29T02:13:30;14.70;86.00
4578;DHT22;2301;47.354;8.528;2022-09-29T02:15:59;14.80;85.70
4578;DHT22;2301;47.354;8.528;2022-09-29T02:18:33;14.70;85.50
4578;DHT22;2301;47.354;8.528;2022-09-29T02:21:02;14.70;85.60
4578;DHT22;2301;47.354;8.528;2022-09-29T02:23:29;14.60;85.60
4578;DHT22;2301;47.354;8.528;2022-09-29T02:25:57;14.60;85.50
4578;DHT22;2301;47.354;8.528;2022-09-29T02:28:25;14.60;85.70
4578;DHT22;2301;47.354;8.528;2022-09-29T02:30:53;14.60;85.90
4578;DHT22;2301;47.354;8.528;2022-09-29T02:33:23;14.60;85.70
4578;DHT22;2301;47.354;8.528;2022-09-29T02:35:58;14.60;85.60
4578;DHT22;2301;47.354;8.528;2022-09-29T02:38:37;14.60;85.60
4578;DHT22;2301;47.354;8.528;2022-09-29T02:41:17;14.60;86.00
4578;DHT22;2301;47.354;8.528;2022-09-29T02:44:03;14.60;86.40
4578;DHT22;2301;47.354;8.528;2022-09-29T02:46:44;14.60;86.80
4578;DHT22;2301;47.354;8.528;2022-09-29T02:49:39;14.60;86.20
4578;DHT22;2301;47.354;8.528;2022-09-29T02:52:17;14.60;86.50
4578;DHT22;2301;47.354;8.528;2022-09-29T02:54:55;14.50;86.30
4578;DHT22;2301;47.354;8.528;2022-09-29T02:57:30;14.50;86.60
4578;DHT22;2301;47.354;8.528;2022-09-29T03:00:03;14.50;86.60
4578;DHT22;2301;47.354;8.528;2022-09-29T03:02:35;14.50;86.70
4578;DHT22;2301;47.354;8.528;2022-09-29T03:05:03;14.50;87.60
4578;DHT22;2301;47.354;8.528;2022-09-29T03:07:32;14.60;88.10
4578;DHT22;2301;47.354;8.528;2022-09-29T03:09:59;14.60;88.30
4578;DHT22;2301;47.354;8.528;2022-09-29T03:12:26;14.60;87.90
4578;DHT22;2301;47.354;8.528;2022-09-29T03:14:53;14.70;88.00
4578;DHT22;2301;47.354;8.528;2022-09-29T03:17:20;14.70;87.90
4578;DHT22;2301;47.354;8.528;2022-09-29T03:19:47;14.70;87.70
4578;DHT22;2301;47.354;8.528;2022-09-29T03:22:14;14.70;87.40
4578;DHT22;2301;47.354;8.528;2022-09-29T03:24:43;14.70;87.40
4578;DHT22;2301;47.354;8.528;2022-09-29T03:27:11;14.80;88.10
4578;DHT22;2301;47.354;8.528;2022-09-29T03:29:37;14.80;88.40
4578;DHT22;2301;47.354;8.528;2022-09-29T03:32:05;14.80;88.60
4578;DHT22;2301;47.354;8.528;2022-09-29T03:34:32;14.90;88.50
4578;DHT22;2301;47.354;8.528;2022-09-29T03:36:59;14.90;88.50
4578;DHT22;2301;47.354;8.528;2022-09-29T03:39:27;14.90;88.40
4578;DHT22;2301;47.354;8.528;2022-09-29T03:41:55;14.90;88.60
4578;DHT22;2301;47.354;8.528;2022-09-29T03:44:22;14.90;88.50
4578;DHT22;2301;47.354;8.528;2022-09-29T03:46:49;15.00;88.90
4578;DHT22;2301;47.354;8.528;2022-09-29T03:49:16;15.00;88.80
4578;DHT22;2301;47.354;8.528;2022-09-29T03:51:43;15.00;88.80
4578;DHT22;2301;47.354;8.528;2022-09-29T03:54:10;15.00;88.80
4578;DHT22;2301;47.354;8.528;2022-09-29T03:56:38;15.00;88.80
4578;DHT22;2301;47.354;8.528;2022-09-29T03:59:07;15.10;88.70
4578;DHT22;2301;47.354;8.528;2022-09-29T04:01:36;15.10;88.80
4578;DHT22;2301;47.354;8.528;2022-09-29T04:04:04;15.10;88.70
4578;DHT22;2301;47.354;8.528;2022-09-29T04:06:32;15.10;88.70
4578;DHT22;2301;47.354;8.528;2022-09-29T04:09:01;15.10;88.70
4578;DHT22;2301;47.354;8.528;2022-09-29T04:11:28;15.10;88.60
4578;DHT22;2301;47.354;8.528;2022-09-29T04:13:55;15.10;88.40
4578;DHT22;2301;47.354;8.528;2022-09-29T04:16:23;15.10;88.40
4578;DHT22;2301;47.354;8.528;2022-09-29T04:18:50;15.20;88.30
4578;DHT22;2301;47.354;8.528;2022-09-29T04:21:17;15.10;88.20
4578;DHT22;2301;47.354;8.528;2022-09-29T04:23:45;15.20;88.30
4578;DHT22;2301;47.354;8.528;2022-09-29T04:26:12;15.20;88.30
4578;DHT22;2301;47.354;8.528;2022-09-29T04:28:39;15.20;88.30
4578;DHT22;2301;47.354;8.528;2022-09-29T04:31:06;15.20;88.20
4578;DHT22;2301;47.354;8.528;2022-09-29T04:33:35;15.20;88.00
4578;DHT22;2301;47.354;8.528;2022-09-29T04:36:04;15.20;88.10
4578;DHT22;2301;47.354;8.528;2022-09-29T04:38:32;15.10;88.10
4578;DHT22;2301;47.354;8.528;2022-09-29T04:40:59;15.20;88.40
4578;DHT22;2301;47.354;8.528;2022-09-29T04:43:26;15.20;88.30
4578;DHT22;2301;47.354;8.528;2022-09-29T04:46:00;15.20;88.10
4578;DHT22;2301;47.354;8.528;2022-09-29T04:48:27;15.20;88.10
4578;DHT22;2301;47.354;8.528;2022-09-29T04:50:56;15.20;88.10
4578;DHT22;2301;47.354;8.528;2022-09-29T04:53:23;15.20;88.10
4578;DHT22;2301;47.354;8.528;2022-09-29T04:55:50;15.20;88.00
4578;DHT22;2301;47.354;8.528;2022-09-29T04:58:17;15.20;88.10
4578;DHT22;2301;47.354;8.528;2022-09-29T05:00:44;15.20;88.00
4578;DHT22;2301;47.354;8.528;2022-09-29T05:03:11;15.20;88.70
4578;DHT22;2301;47.354;8.528;2022-09-29T05:05:38;15.20;87.70
4578;DHT22;2301;47.354;8.528;2022-09-29T05:08:06;15.10;86.60
4578;DHT22;2301;47.354;8.528;2022-09-29T05:10:34;14.90;86.00
4578;DHT22;2301;47.354;8.528;2022-09-29T05:13:00;14.80;86.30
4578;DHT22;2301;47.354;8.528;2022-09-29T05:15:28;14.70;86.30
4578;DHT22;2301;47.354;8.528;2022-09-29T05:17:55;14.60;86.70
4578;DHT22;2301;47.354;8.528;2022-09-29T05:20:21;14.50;86.90
4578;DHT22;2301;47.354;8.528;2022-09-29T05:22:48;14.40;87.10
4578;DHT22;2301;47.354;8.528;2022-09-29T05:25:17;14.40;87.40
4578;DHT22;2301;47.354;8.528;2022-09-29T05:27:44;14.30;87.70
4578;DHT22;2301;47.354;8.528;2022-09-29T05:30:11;14.20;87.60
4578;DHT22;2301;47.354;8.528;2022-09-29T05:32:38;14.20;88.10
4578;DHT22;2301;47.354;8.528;2022-09-29T05:35:06;14.20;88.40
4578;DHT22;2301;47.354;8.528;2022-09-29T05:37:33;14.20;88.60
4578;DHT22;2301;47.354;8.528;2022-09-29T05:40:01;14.10;88.60
4578;DHT22;2301;47.354;8.528;2022-09-29T05:42:30;14.00;89.00
4578;DHT22;2301;47.354;8.528;2022-09-29T05:44:57;14.10;89.50
4578;DHT22;2301;47.354;8.528;2022-09-29T05:47:24;14.00;90.10
4578;DHT22;2301;47.354;8.528;2022-09-29T05:49:51;14.00;89.50
4578;DHT22;2301;47.354;8.528;2022-09-29T05:52:18;13.90;89.90
4578;DHT22;2301;47.354;8.528;2022-09-29T05:54:45;14.00;90.00
4578;DHT22;2301;47.354;8.528;2022-09-29T05:57:15;14.00;90.00
4578;DHT22;2301;47.354;8.528;2022-09-29T05:59:44;13.90;90.10
4578;DHT22;2301;47.354;8.528;2022-09-29T06:02:11;13.90;90.20
4578;DHT22;2301;47.354;8.528;2022-09-29T06:04:38;13.90;90.20
4578;DHT22;2301;47.354;8.528;2022-09-29T06:07:05;13.90;90.40
4578;DHT22;2301;47.354;8.528;2022-09-29T06:09:32;13.90;90.30
4578;DHT22;2301;47.354;8.528;2022-09-29T06:12:00;13.90;90.40
4578;DHT22;2301;47.354;8.528;2022-09-29T06:14:27;13.90;90.00
4578;DHT22;2301;47.354;8.528;2022-09-29T06:16:56;14.00;91.10
4578;DHT22;2301;47.354;8.528;2022-09-29T06:19:23;14.00;89.20
4578;DHT22;2301;47.354;8.528;2022-09-29T06:21:50;14.00;87.40
4578;DHT22;2301;47.354;8.528;2022-09-29T06:24:18;13.90;86.30
4578;DHT22;2301;47.354;8.528;2022-09-29T06:26:45;13.70;85.90
4578;DHT22;2301;47.354;8.528;2022-09-29T06:29:11;13.60;86.00
4578;DHT22;2301;47.354;8.528;2022-09-29T06:31:40;13.60;85.90
4578;DHT22;2301;47.354;8.528;2022-09-29T06:34:09;13.40;86.00
4578;DHT22;2301;47.354;8.528;2022-09-29T06:36:40;13.40;86.20
4578;DHT22;2301;47.354;8.528;2022-09-29T06:39:25;13.30;86.10
4578;DHT22;2301;47.354;8.528;2022-09-29T06:41:52;13.30;86.20
4578;DHT22;2301;47.354;8.528;2022-09-29T06:44:21;13.20;86.30
4578;DHT22;2301;47.354;8.528;2022-09-29T06:46:49;13.20;86.50
4578;DHT22;2301;47.354;8.528;2022-09-29T06:49:18;13.10;86.50
4578;DHT22;2301;47.354;8.528;2022-09-29T06:51:46;13.10;86.70
4578;DHT22;2301;47.354;8.528;2022-09-29T06:54:13;13.00;86.90
4578;DHT22;2301;47.354;8.528;2022-09-29T06:56:41;13.00;86.90
4578;DHT22;2301;47.354;8.528;2022-09-29T06:59:08;13.00;87.20
4578;DHT22;2301;47.354;8.528;2022-09-29T07:01:35;12.90;87.40
4578;DHT22;2301;47.354;8.528;2022-09-29T07:04:02;12.90;87.50
4578;DHT22;2301;47.354;8.528;2022-09-29T07:06:31;12.90;87.50
4578;DHT22;2301;47.354;8.528;2022-09-29T07:08:58;12.90;87.60
4578;DHT22;2301;47.354;8.528;2022-09-29T07:11:26;13.10;91.80
4578;DHT22;2301;47.354;8.528;2022-09-29T07:13:53;13.10;90.20
4578;DHT22;2301;47.354;8.528;2022-09-29T07:16:21;13.10;89.40
4578;DHT22;2301;47.354;8.528;2022-09-29T07:18:49;13.00;88.90
4578;DHT22;2301;47.354;8.528;2022-09-29T07:21:16;13.00;88.90
4578;DHT22;2301;47.354;8.528;2022-09-29T07:23:46;13.00;89.10
4578;DHT22;2301;47.354;8.528;2022-09-29T07:26:13;12.90;89.20
4578;DHT22;2301;47.354;8.528;2022-09-29T07:28:41;13.30;94.10
4578;DHT22;2301;47.354;8.528;2022-09-29T07:31:11;14.10;95.80
4578;DHT22;2301;47.354;8.528;2022-09-29T07:33:38;14.80;94.80
4578;DHT22;2301;47.354;8.528;2022-09-29T07:36:05;15.40;93.40
4578;DHT22;2301;47.354;8.528;2022-09-29T07:38:32;15.80;92.40
4578;DHT22;2301;47.354;8.528;2022-09-29T07:41:02;16.20;90.00
4578;DHT22;2301;47.354;8.528;2022-09-29T07:43:29;16.00;84.90
4578;DHT22;2301;47.354;8.528;2022-09-29T07:45:57;15.80;82.70
4578;DHT22;2301;47.354;8.528;2022-09-29T07:48:25;15.40;81.80
4578;DHT22;2301;47.354;8.528;2022-09-29T07:50:59;15.20;81.90
4578;DHT22;2301;47.354;8.528;2022-09-29T07:53:26;14.90;81.50
4578;DHT22;2301;47.354;8.528;2022-09-29T07:55:54;14.70;81.90
4578;DHT22;2301;47.354;8.528;2022-09-29T07:58:22;14.60;82.40
4578;DHT22;2301;47.354;8.528;2022-09-29T08:00:53;14.40;82.80
4578;DHT22;2301;47.354;8.528;2022-09-29T08:03:20;14.30;83.10
4578;DHT22;2301;47.354;8.528;2022-09-29T08:05:50;14.20;83.60
4578;DHT22;2301;47.354;8.528;2022-09-29T08:08:17;14.10;83.80
4578;DHT22;2301;47.354;8.528;2022-09-29T08:10:44;14.00;84.00
4578;DHT22;2301;47.354;8.528;2022-09-29T08:13:11;13.90;84.30
4578;DHT22;2301;47.354;8.528;2022-09-29T08:15:40;13.90;84.50
4578;DHT22;2301;47.354;8.528;2022-09-29T08:18:07;13.80;84.80
4578;DHT22;2301;47.354;8.528;2022-09-29T08:20:34;13.70;85.30
4578;DHT22;2301;47.354;8.528;2022-09-29T08:23:01;13.70;85.70
4578;DHT22;2301;47.354;8.528;2022-09-29T08:25:28;13.70;86.20
4578;DHT22;2301;47.354;8.528;2022-09-29T08:27:55;13.60;86.40
4578;DHT22;2301;47.354;8.528;2022-09-29T08:30:22;13.60;86.70
4578;DHT22;2301;47.354;8.528;2022-09-29T08:32:54;13.60;87.00
4578;DHT22;2301;47.354;8.528;2022-09-29T08:35:21;13.60;87.60
4578;DHT22;2301;47.354;8.528;2022-09-29T08:37:49;13.50;87.50
4578;DHT22;2301;47.354;8.528;2022-09-29T08:40:17;13.50;87.40
4578;DHT22;2301;47.354;8.528;2022-09-29T08:42:56;13.50;87.20
4578;DHT22;2301;47.354;8.528;2022-09-29T08:45:29;13.50;87.50
4578;DHT22;2301;47.354;8.528;2022-09-29T08:48:04;13.40;87.90
4578;DHT22;2301;47.354;8.528;2022-09-29T08:50:34;13.40;88.40
4578;DHT22;2301;47.354;8.528;2022-09-29T08:53:07;13.40;88.50
4578;DHT22;2301;47.354;8.528;2022-09-29T08:55:41;13.40;88.30
4578;DHT22;2301;47.354;8.528;2022-09-29T08:58:11;13.50;88.60
4578;DHT22;2301;47.354;8.528;2022-09-29T09:00:42;13.40;88.60
4578;DHT22;2301;47.354;8.528;2022-09-29T09:03:28;13.50;88.90
4578;DHT22;2301;47.354;8.528;2022-09-29T09:06:12;13.50;89.20
4578;DHT22;2301;47.354;8.528;2022-09-29T09:08:52;13.50;89.20
4578;DHT22;2301;47.354;8.528;2022-09-29T09:11:40;13.50;89.20
4578;DHT22;2301;47.354;8.528;2022-09-29T09:14:21;13.50;89.60
4578;DHT22;2301;47.354;8.528;2022-09-29T09:17:01;13.50;89.70
4578;DHT22;2301;47.354;8.528;2022-09-29T09:19:50;13.50;90.00
4578;DHT22;2301;47.354;8.528;2022-09-29T09:22:21;13.60;90.10
4578;DHT22;2301;47.354;8.528;2022-09-29T09:24:55;13.60;90.20
4578;DHT22;2301;47.354;8.528;2022-09-29T09:27:25;13.70;90.10
4578;DHT22;2301;47.354;8.528;2022-09-29T09:30:02;13.70;90.10
4578;DHT22;2301;47.354;8.528;2022-09-29T09:32:34;13.70;90.00
4578;DHT22;2301;47.354;8.528;2022-09-29T09:35:26;13.80;90.00
4578;DHT22;2301;47.354;8.528;2022-09-29T09:37:58;13.80;90.00
4578;DHT22;2301;47.354;8.528;2022-09-29T09:40:28;13.80;90.00
4578;DHT22;2301;47.354;8.528;2022-09-29T09:43:01;13.80;90.00
4578;DHT22;2301;47.354;8.528;2022-09-29T09:45:31;13.80;89.50
4578;DHT22;2301;47.354;8.528;2022-09-29T09:48:02;13.80;89.20
4578;DHT22;2301;47.354;8.528;2022-09-29T09:50:36;13.80;89.20
4578;DHT22;2301;47.354;8.528;2022-09-29T09:53:11;13.90;89.60
4578;DHT22;2301;47.354;8.528;2022-09-29T09:55:41;13.90;89.90
4578;DHT22;2301;47.354;8.528;2022-09-29T09:58:35;14.00;90.10
4578;DHT22;2301;47.354;8.528;2022-09-29T10:01:07;14.00;90.10
4578;DHT22;2301;47.354;8.528;2022-09-29T10:03:37;14.00;89.90
4578;DHT22;2301;47.354;8.528;2022-09-29T10:06:06;14.00;90.00
4578;DHT22;2301;47.354;8.528;2022-09-29T10:08:35;14.00;89.70
4578;DHT22;2301;47.354;8.528;2022-09-29T10:11:14;14.10;89.80
4578;DHT22;2301;47.354;8.528;2022-09-29T10:13:46;14.10;90.00
4578;DHT22;2301;47.354;8.528;2022-09-29T10:16:15;14.10;89.40
4578;DHT22;2301;47.354;8.528;2022-09-29T10:18:44;14.20;89.50
4578;DHT22;2301;47.354;8.528;2022-09-29T10:21:21;14.30;89.30
4578;DHT22;2301;47.354;8.528;2022-09-29T10:23:52;14.30;89.30
4578;DHT22;2301;47.354;8.528;2022-09-29T10:26:22;14.30;89.00
4578;DHT22;2301;47.354;8.528;2022-09-29T10:28:52;14.40;88.70
4578;DHT22;2301;47.354;8.528;2022-09-29T10:31:22;14.40;89.00
4578;DHT22;2301;47.354;8.528;2022-09-29T10:33:53;14.50;89.10
4578;DHT22;2301;47.354;8.528;2022-09-29T10:36:24;14.50;88.80
4578;DHT22;2301;47.354;8.528;2022-09-29T10:38:52;14.60;89.20
4578;DHT22;2301;47.354;8.528;2022-09-29T10:41:21;14.70;88.70
4578;DHT22;2301;47.354;8.528;2022-09-29T10:43:49;14.80;87.80
4578;DHT22;2301;47.354;8.528;2022-09-29T10:46:37;14.80;86.50
4578;DHT22;2301;47.354;8.528;2022-09-29T10:49:14;14.90;85.70
4578;DHT22;2301;47.354;8.528;2022-09-29T10:51:56;14.90;86.90
4578;DHT22;2301;47.354;8.528;2022-09-29T10:54:24;14.90;87.80
4578;DHT22;2301;47.354;8.528;2022-09-29T10:56:52;14.90;87.00
4578;DHT22;2301;47.354;8.528;2022-09-29T10:59:21;14.90;86.80
4578;DHT22;2301;47.354;8.528;2022-09-29T11:01:50;14.90;86.80
4578;DHT22;2301;47.354;8.528;2022-09-29T11:04:22;14.90;87.20
4578;DHT22;2301;47.354;8.528;2022-09-29T11:06:52;15.00;86.30
4578;DHT22;2301;47.354;8.528;2022-09-29T11:09:29;14.90;85.70
4578;DHT22;2301;47.354;8.528;2022-09-29T11:11:57;14.90;84.60
4578;DHT22;2301;47.354;8.528;2022-09-29T11:14:28;14.90;84.20
4578;DHT22;2301;47.354;8.528;2022-09-29T11:16:57;14.90;84.70
4578;DHT22;2301;47.354;8.528;2022-09-29T11:19:24;14.90;84.60
4578;DHT22;2301;47.354;8.528;2022-09-29T11:22:10;14.90;85.30
4578;DHT22;2301;47.354;8.528;2022-09-29T11:24:55;15.00;85.10
4578;DHT22;2301;47.354;8.528;2022-09-29T11:27:32;15.00;84.30
4578;DHT22;2301;47.354;8.528;2022-09-29T11:30:05;15.10;84.20
4578;DHT22;2301;47.354;8.528;2022-09-29T11:32:52;15.10;83.30
4578;DHT22;2301;47.354;8.528;2022-09-29T11:35:39;15.20;82.50
4578;DHT22;2301;47.354;8.528;2022-09-29T11:41:38;15.30;81.50
4578;DHT22;2301;47.354;8.528;2022-09-29T11:44:22;15.30;80.40
4578;DHT22;2301;47.354;8.528;2022-09-29T11:47:02;15.30;79.70
4578;DHT22;2301;47.354;8.528;2022-09-29T11:49:48;15.40;80.50
4578;DHT22;2301;47.354;8.528;2022-09-29T11:52:41;15.50;80.00
4578;DHT22;2301;47.354;8.528;2022-09-29T11:55:26;15.50;77.80
4578;DHT22;2301;47.354;8.528;2022-09-29T11:58:02;15.50;79.30
4578;DHT22;2301;47.354;8.528;2022-09-29T12:00:41;15.40;78.20
4578;DHT22;2301;47.354;8.528;2022-09-29T12:03:20;15.50;78.00
4578;DHT22;2301;47.354;8.528;2022-09-29T12:06:12;15.60;78.70
4578;DHT22;2301;47.354;8.528;2022-09-29T12:08:49;15.60;78.20
4578;DHT22;2301;47.354;8.528;2022-09-29T12:11:31;15.70;77.50
4578;DHT22;2301;47.354;8.528;2022-09-29T12:14:10;15.80;77.20
4578;DHT22;2301;47.354;8.528;2022-09-29T12:16:44;15.70;75.00
4578;DHT22;2301;47.354;8.528;2022-09-29T12:19:18;15.80;76.40
4578;DHT22;2301;47.354;8.528;2022-09-29T12:21:48;15.70;76.50
4578;DHT22;2301;47.354;8.528;2022-09-29T12:24:18;15.70;75.60
4578;DHT22;2301;47.354;8.528;2022-09-29T12:26:49;15.80;75.70
4578;DHT22;2301;47.354;8.528;2022-09-29T12:29:25;15.80;76.00
4578;DHT22;2301;47.354;8.528;2022-09-29T12:31:57;15.80;75.30
4578;DHT22;2301;47.354;8.528;2022-09-29T12:34:31;15.80;73.40
4578;DHT22;2301;47.354;8.528;2022-09-29T12:37:02;15.80;74.50
4578;DHT22;2301;47.354;8.528;2022-09-29T12:39:39;15.80;74.90
4578;DHT22;2301;47.354;8.528;2022-09-29T12:42:20;15.80;74.40
4578;DHT22;2301;47.354;8.528;2022-09-29T12:44:52;15.80;75.10
4578;DHT22;2301;47.354;8.528;2022-09-29T12:47:27;15.80;74.50
4578;DHT22;2301;47.354;8.528;2022-09-29T12:50:04;15.90;75.70
4578;DHT22;2301;47.354;8.528;2022-09-29T12:52:41;15.90;75.80
4578;DHT22;2301;47.354;8.528;2022-09-29T12:55:18;15.90;74.50
4578;DHT22;2301;47.354;8.528;2022-09-29T12:57:52;15.90;74.60
4578;DHT22;2301;47.354;8.528;2022-09-29T13:00:21;15.80;73.20
4578;DHT22;2301;47.354;8.528;2022-09-29T13:03:21;15.80;73.20
4578;DHT22;2301;47.354;8.528;2022-09-29T13:06:03;15.80;73.40
4578;DHT22;2301;47.354;8.528;2022-09-29T13:08:49;15.70;73.40
4578;DHT22;2301;47.354;8.528;2022-09-29T13:14:39;15.70;74.40
4578;DHT22;2301;47.354;8.528;2022-09-29T13:17:26;15.70;74.00
4578;DHT22;2301;47.354;8.528;2022-09-29T13:20:25;15.70;73.60
4578;DHT22;2301;47.354;8.528;2022-09-29T13:23:13;15.60;73.70
4578;DHT22;2301;47.354;8.528;2022-09-29T13:25:55;15.50;74.10
4578;DHT22;2301;47.354;8.528;2022-09-29T13:28:29;15.50;74.70
4578;DHT22;2301;47.354;8.528;2022-09-29T13:31:01;15.40;73.70
4578;DHT22;2301;47.354;8.528;2022-09-29T13:33:29;15.40;73.30
4578;DHT22;2301;47.354;8.528;2022-09-29T13:35:56;15.30;73.00
4578;DHT22;2301;47.354;8.528;2022-09-29T13:38:26;15.30;74.60
4578;DHT22;2301;47.354;8.528;2022-09-29T13:41:13;15.30;75.20
4578;DHT22;2301;47.354;8.528;2022-09-29T13:46:48;15.30;74.50
4578;DHT22;2301;47.354;8.528;2022-09-29T13:49:27;15.30;74.50
4578;DHT22;2301;47.354;8.528;2022-09-29T13:51:55;15.30;75.00
4578;DHT22;2301;47.354;8.528;2022-09-29T13:54:37;15.20;74.70
4578;DHT22;2301;47.354;8.528;2022-09-29T13:57:20;15.20;76.00
4578;DHT22;2301;47.354;8.528;2022-09-29T14:00:18;15.20;76.20
4578;DHT22;2301;47.354;8.528;2022-09-29T14:06:13;15.10;77.40
4578;DHT22;2301;47.354;8.528;2022-09-29T14:08:44;15.10;77.60
4578;DHT22;2301;47.354;8.528;2022-09-29T14:11:18;15.10;78.20
4578;DHT22;2301;47.354;8.528;2022-09-29T14:13:52;15.10;78.20
4578;DHT22;2301;47.354;8.528;2022-09-29T14:16:49;15.10;78.30
4578;DHT22;2301;47.354;8.528;2022-09-29T14:19:35;15.10;76.80
4578;DHT22;2301;47.354;8.528;2022-09-29T14:22:04;15.00;76.80
4578;DHT22;2301;47.354;8.528;2022-09-29T14:24:52;14.90;76.60
4578;DHT22;2301;47.354;8.528;2022-09-29T14:27:26;14.90;76.80
4578;DHT22;2301;47.354;8.528;2022-09-29T14:30:00;14.90;77.70
4578;DHT22;2301;47.354;8.528;2022-09-29T14:32:38;14.90;77.80
4578;DHT22;2301;47.354;8.528;2022-09-29T14:35:19;14.80;77.00
4578;DHT22;2301;47.354;8.528;2022-09-29T14:37:56;14.90;77.50
4578;DHT22;2301;47.354;8.528;2022-09-29T14:40:24;14.80;78.70
4578;DHT22;2301;47.354;8.528;2022-09-29T14:43:18;14.80;78.20
4578;DHT22;2301;47.354;8.528;2022-09-29T14:49:35;14.70;77.30
4578;DHT22;2301;47.354;8.528;2022-09-29T14:52:32;14.70;77.50
4578;DHT22;2301;47.354;8.528;2022-09-29T14:55:05;14.70;77.40
4578;DHT22;2301;47.354;8.528;2022-09-29T14:57:51;14.60;77.00
4578;DHT22;2301;47.354;8.528;2022-09-29T15:00:26;14.60;76.60
4578;DHT22;2301;47.354;8.528;2022-09-29T15:02:55;14.60;77.30
4578;DHT22;2301;47.354;8.528;2022-09-29T15:05:26;14.60;77.90
4578;DHT22;2301;47.354;8.528;2022-09-29T15:07:55;14.60;78.20
4578;DHT22;2301;47.354;8.528;2022-09-29T15:10:25;14.60;78.40
4578;DHT22;2301;47.354;8.528;2022-09-29T15:12:52;14.50;78.40
4578;DHT22;2301;47.354;8.528;2022-09-29T15:15:40;14.50;79.40
4578;DHT22;2301;47.354;8.528;2022-09-29T15:18:22;14.50;79.80
4578;DHT22;2301;47.354;8.528;2022-09-29T15:20:57;14.50;79.60
4578;DHT22;2301;47.354;8.528;2022-09-29T15:23:44;14.50;78.90
4578;DHT22;2301;47.354;8.528;2022-09-29T15:26:17;14.50;79.20
4578;DHT22;2301;47.354;8.528;2022-09-29T15:28:45;14.40;80.10
4578;DHT22;2301;47.354;8.528;2022-09-29T15:31:15;14.40;81.00
4578;DHT22;2301;47.354;8.528;2022-09-29T15:33:44;14.40;81.70
4578;DHT22;2301;47.354;8.528;2022-09-29T15:36:17;14.40;82.30
4578;DHT22;2301;47.354;8.528;2022-09-29T15:38:50;14.30;82.80
4578;DHT22;2301;47.354;8.528;2022-09-29T15:41:19;14.30;83.20
4578;DHT22;2301;47.354;8.528;2022-09-29T15:43:54;14.30;83.70
4578;DHT22;2301;47.354;8.528;2022-09-29T15:46:24;14.30;84.50
4578;DHT22;2301;47.354;8.528;2022-09-29T15:49:14;14.20;84.80
4578;DHT22;2301;47.354;8.528;2022-09-29T15:51:44;14.20;85.10
4578;DHT22;2301;47.354;8.528;2022-09-29T15:54:13;14.20;85.50
4578;DHT22;2301;47.354;8.528;2022-09-29T15:56:40;14.20;86.00
4578;DHT22;2301;47.354;8.528;2022-09-29T15:59:53;14.10;85.90
4578;DHT22;2301;47.354;8.528;2022-09-29T16:02:28;14.20;86.50
4578;DHT22;2301;47.354;8.528;2022-09-29T16:04:57;14.10;86.60
4578;DHT22;2301;47.354;8.528;2022-09-29T16:07:27;14.10;86.80
4578;DHT22;2301;47.354;8.528;2022-09-29T16:10:06;14.10;86.90
4578;DHT22;2301;47.354;8.528;2022-09-29T16:12:44;14.10;87.30
4578;DHT22;2301;47.354;8.528;2022-09-29T16:15:24;14.00;87.40
4578;DHT22;2301;47.354;8.528;2022-09-29T16:17:52;14.00;87.70
4578;DHT22;2301;47.354;8.528;2022-09-29T16:20:25;14.00;87.70
4578;DHT22;2301;47.354;8.528;2022-09-29T16:22:52;14.10;87.80
4578;DHT22;2301;47.354;8.528;2022-09-29T16:25:24;14.10;87.80
4578;DHT22;2301;47.354;8.528;2022-09-29T16:27:53;14.10;88.10
4578;DHT22;2301;47.354;8.528;2022-09-29T16:30:24;14.00;88.20
4578;DHT22;2301;47.354;8.528;2022-09-29T16:33:01;14.00;88.50
4578;DHT22;2301;47.354;8.528;2022-09-29T16:35:56;14.00;88.60
4578;DHT22;2301;47.354;8.528;2022-09-29T16:38:32;13.90;88.60
4578;DHT22;2301;47.354;8.528;2022-09-29T16:41:17;13.90;88.90
4578;DHT22;2301;47.354;8.528;2022-09-29T16:43:45;13.90;88.70
4578;DHT22;2301;47.354;8.528;2022-09-29T16:46:16;13.90;88.60
4578;DHT22;2301;47.354;8.528;2022-09-29T16:48:45;13.90;88.90
4578;DHT22;2301;47.354;8.528;2022-09-29T16:51:15;13.80;88.90
4578;DHT22;2301;47.354;8.528;2022-09-29T16:53:43;13.80;88.80
4578;DHT22;2301;47.354;8.528;2022-09-29T16:56:20;13.80;88.80